sensor_id;sensor_type;location;lat;lon;timestamp;pressure;altitude;pressure_sealevel;temperature;humidity
71194;BME280;58903;47.210;8.618;2023-11-19T00:01:34;94451.78;;;25.06;44.91
71194;BME280;58903;47.210;8.618;2023-11-19T00:04:00;94458.03;;;25.06;44.94
71194;BME280;58903;47.210;8.618;2023-11-19T00:06:27;94449.78;;;25.06;44.01
71194;BME280;58903;47.210;8.618;2023-11-19T00:08:55;94447.78;;;25.07;44.70
71194;BME280;58903;47.210;8.618;2023-11-19T00:11:21;94446.28;;;25.06;44.09
71194;BME280;58903;47.210;8.618;2023-11-19T00:13:48;94447.03;;;25.06;44.04
71194;BME280;58903;47.210;8.618;2023-11-19T00:16:23;94442.28;;;25.07;45.02
71194;BME280;58903;47.210;8.618;2023-11-19T00:18:58;94447.03;;;25.06;44.00
71194;BME280;58903;47.210;8.618;2023-11-19T00:21:29;94435.78;;;25.04;44.85
71194;BME280;58903;47.210;8.618;2023-11-19T00:23:58;94430.53;;;25.06;44.51
71194;BME280;58903;47.210;8.618;2023-11-19T00:26:42;94428.28;;;25.05;44.84
71194;BME280;58903;47.210;8.618;2023-11-19T00:29:21;94411.78;;;25.05;44.77
71194;BME280;58903;47.210;8.618;2023-11-19T00:31:49;94411.03;;;25.04;44.42
71194;BME280;58903;47.210;8.618;2023-11-19T00:34:21;94406.78;;;25.03;44.61
71194;BME280;58903;47.210;8.618;2023-11-19T00:36:56;94404.28;;;25.05;44.41
71194;BME280;58903;47.210;8.618;2023-11-19T00:39:32;94415.03;;;25.03;44.35
71194;BME280;58903;47.210;8.618;2023-11-19T00:42:25;94425.03;;;25.06;44.55
71194;BME280;58903;47.210;8.618;2023-11-19T00:45:01;94426.78;;;25.04;44.17
71194;BME280;58903;47.210;8.618;2023-11-19T00:48:00;94428.28;;;25.05;44.77
71194;BME280;58903;47.210;8.618;2023-11-19T00:50:56;94432.53;;;25.06;44.88
71194;BME280;58903;47.210;8.618;2023-11-19T00:53:21;94431.03;;;25.05;44.43
71194;BME280;58903;47.210;8.618;2023-11-19T00:55:51;94428.53;;;25.01;44.12
71194;BME280;58903;47.210;8.618;2023-11-19T00:58:34;94432.53;;;25.06;44.86
71194;BME280;58903;47.210;8.618;2023-11-19T01:01:00;94425.28;;;25.03;44.83
71194;BME280;58903;47.210;8.618;2023-11-19T01:03:29;94429.53;;;25.04;44.94
71194;BME280;58903;47.210;8.618;2023-11-19T01:05:56;94422.03;;;25.04;44.85
71194;BME280;58903;47.210;8.618;2023-11-19T01:08:38;94413.78;;;25.04;44.06
71194;BME280;58903;47.210;8.618;2023-11-19T01:11:04;94416.75;;;25.06;44.55
71194;BME280;58903;47.210;8.618;2023-11-19T01:13:52;94421.50;;;25.06;44.26
71194;BME280;58903;47.210;8.618;2023-11-19T01:16:26;94417.03;;;25.03;44.46
71194;BME280;58903;47.210;8.618;2023-11-19T01:18:56;94426.28;;;25.05;43.89
71194;BME280;58903;47.210;8.618;2023-11-19T01:21:46;94412.53;;;25.05;44.23
71194;BME280;58903;47.210;8.618;2023-11-19T01:24:12;94413.25;;;25.06;44.86
71194;BME280;58903;47.210;8.618;2023-11-19T01:26:50;94413.03;;;25.04;44.36
71194;BME280;58903;47.210;8.618;2023-11-19T01:29:22;94410.25;;;25.04;44.00
71194;BME280;58903;47.210;8.618;2023-11-19T01:32:07;94412.53;;;25.05;43.86
71194;BME280;58903;47.210;8.618;2023-11-19T01:34:40;94406.28;;;25.05;44.53
71194;BME280;58903;47.210;8.618;2023-11-19T01:37:11;94412.53;;;25.05;44.61
71194;BME280;58903;47.210;8.618;2023-11-19T01:39:39;94393.25;;;25.05;43.88
71194;BME280;58903;47.210;8.618;2023-11-19T01:42:10;94382.75;;;25.04;44.71
71194;BME280;58903;47.210;8.618;2023-11-19T01:44:57;94371.75;;;25.04;44.77
71194;BME280;58903;47.210;8.618;2023-11-19T01:47:43;94355.00;;;25.02;44.86
71194;BME280;58903;47.210;8.618;2023-11-19T01:50:12;94360.72;;;25.04;44.93
71194;BME280;58903;47.210;8.618;2023-11-19T01:53:08;94345.72;;;25.05;44.13
71194;BME280;58903;47.210;8.618;2023-11-19T01:55:46;94355.22;;;25.04;43.86
71194;BME280;58903;47.210;8.618;2023-11-19T01:58:17;94344.97;;;25.04;43.95
71194;BME280;58903;47.210;8.618;2023-11-19T02:00:45;94353.22;;;25.04;43.94
71194;BME280;58903;47.210;8.618;2023-11-19T02:03:46;94353.47;;;25.06;44.91
71194;BME280;58903;47.210;8.618;2023-11-19T02:06:16;94352.72;;;25.06;43.76
71194;BME280;58903;47.210;8.618;2023-11-19T02:09:16;94358.97;;;25.06;44.19
71194;BME280;58903;47.210;8.618;2023-11-19T02:12:21;94356.97;;;25.07;43.85
71194;BME280;58903;47.210;8.618;2023-11-19T02:14:48;94341.47;;;25.04;43.94
71194;BME280;58903;47.210;8.618;2023-11-19T02:17:35;94331.44;;;25.06;44.63
71194;BME280;58903;47.210;8.618;2023-11-19T02:20:10;94323.72;;;25.05;44.33
71194;BME280;58903;47.210;8.618;2023-11-19T02:28:43;94327.72;;;25.04;44.70
71194;BME280;58903;47.210;8.618;2023-11-19T02:31:13;94324.47;;;25.05;44.38
71194;BME280;58903;47.210;8.618;2023-11-19T02:33:39;94330.69;;;25.06;44.21
71194;BME280;58903;47.210;8.618;2023-11-19T02:36:24;94321.19;;;25.07;43.55
71194;BME280;58903;47.210;8.618;2023-11-19T02:39:17;94310.19;;;25.07;43.55
71194;BME280;58903;47.210;8.618;2023-11-19T02:45:12;94293.22;;;25.03;43.96
71194;BME280;58903;47.210;8.618;2023-11-19T02:47:41;94275.66;;;25.06;44.36
71194;BME280;58903;47.210;8.618;2023-11-19T02:50:27;94254.91;;;25.05;44.59
71194;BME280;58903;47.210;8.618;2023-11-19T02:52:55;94252.16;;;25.05;43.69
71194;BME280;58903;47.210;8.618;2023-11-19T02:55:47;94257.66;;;25.05;43.77
71194;BME280;58903;47.210;8.618;2023-11-19T02:58:34;94249.94;;;25.03;43.86
71194;BME280;58903;47.210;8.618;2023-11-19T03:04:44;94267.41;;;25.06;44.13
71194;BME280;58903;47.210;8.618;2023-11-19T03:07:28;94277.16;;;25.07;44.48
71194;BME280;58903;47.210;8.618;2023-11-19T03:13:16;94310.72;;;25.05;43.75
71194;BME280;58903;47.210;8.618;2023-11-19T03:16:12;94303.19;;;25.06;44.39
71194;BME280;58903;47.210;8.618;2023-11-19T03:18:55;94311.19;;;25.04;43.65
71194;BME280;58903;47.210;8.618;2023-11-19T03:21:42;94325.94;;;25.06;43.90
71194;BME280;58903;47.210;8.618;2023-11-19T03:24:28;94318.97;;;25.05;44.02
71194;BME280;58903;47.210;8.618;2023-11-19T03:26:58;94310.72;;;25.05;43.56
71194;BME280;58903;47.210;8.618;2023-11-19T03:29:28;94316.44;;;25.07;43.72
71194;BME280;58903;47.210;8.618;2023-11-19T03:35:24;94320.69;;;25.08;43.44
71194;BME280;58903;47.210;8.618;2023-11-19T03:37:51;94311.66;;;25.08;43.76
71194;BME280;58903;47.210;8.618;2023-11-19T03:40:22;94313.69;;;25.07;43.96
71194;BME280;58903;47.210;8.618;2023-11-19T03:43:17;94308.69;;;25.06;43.76
71194;BME280;58903;47.210;8.618;2023-11-19T03:45:56;94306.44;;;25.04;43.62
71194;BME280;58903;47.210;8.618;2023-11-19T03:48:34;94310.19;;;25.07;44.33
71194;BME280;58903;47.210;8.618;2023-11-19T03:54:21;94300.44;;;25.06;44.02
71194;BME280;58903;47.210;8.618;2023-11-19T03:57:04;94302.94;;;25.04;43.95
71194;BME280;58903;47.210;8.618;2023-11-19T03:59:45;94319.69;;;25.06;43.56
71194;BME280;58903;47.210;8.618;2023-11-19T04:02:14;94322.22;;;25.04;43.51
71194;BME280;58903;47.210;8.618;2023-11-19T04:04:50;94325.72;;;25.04;43.81
71194;BME280;58903;47.210;8.618;2023-11-19T04:07:17;94327.94;;;25.06;44.24
71194;BME280;58903;47.210;8.618;2023-11-19T04:09:44;94325.44;;;25.08;43.71
71194;BME280;58903;47.210;8.618;2023-11-19T04:12:15;94317.97;;;25.03;43.56
71194;BME280;58903;47.210;8.618;2023-11-19T04:18:25;94325.19;;;25.06;44.09
71194;BME280;58903;47.210;8.618;2023-11-19T04:20:54;94326.69;;;25.07;43.67
71194;BME280;58903;47.210;8.618;2023-11-19T04:23:24;94338.00;;;25.03;44.27
71194;BME280;58903;47.210;8.618;2023-11-19T04:26:19;94332.72;;;25.05;43.30
71194;BME280;58903;47.210;8.618;2023-11-19T04:28:54;94342.00;;;25.02;43.79
71194;BME280;58903;47.210;8.618;2023-11-19T04:31:20;94351.22;;;25.05;43.97
71194;BME280;58903;47.210;8.618;2023-11-19T04:33:58;94358.22;;;25.06;44.22
71194;BME280;58903;47.210;8.618;2023-11-19T04:36:28;94360.97;;;25.06;43.57
71194;BME280;58903;47.210;8.618;2023-11-19T04:38:55;94351.00;;;25.03;43.40
71194;BME280;58903;47.210;8.618;2023-11-19T04:41:21;94356.75;;;25.05;43.90
71194;BME280;58903;47.210;8.618;2023-11-19T04:43:49;94352.47;;;25.04;43.42
71194;BME280;58903;47.210;8.618;2023-11-19T04:46:15;94365.00;;;25.05;43.33
71194;BME280;58903;47.210;8.618;2023-11-19T04:49:00;94357.97;;;25.04;43.57
71194;BME280;58903;47.210;8.618;2023-11-19T04:51:41;94365.75;;;25.05;43.82
71194;BME280;58903;47.210;8.618;2023-11-19T04:54:25;94367.50;;;25.03;43.40
71194;BME280;58903;47.210;8.618;2023-11-19T05:00:24;94366.22;;;25.04;43.71
71194;BME280;58903;47.210;8.618;2023-11-19T05:02:58;94378.00;;;25.04;43.20
71194;BME280;58903;47.210;8.618;2023-11-19T05:06:02;94379.50;;;25.05;43.74
71194;BME280;58903;47.210;8.618;2023-11-19T05:08:28;94371.25;;;25.05;43.30
71194;BME280;58903;47.210;8.618;2023-11-19T05:11:12;94371.97;;;25.06;43.35
71194;BME280;58903;47.210;8.618;2023-11-19T05:13:44;94376.50;;;25.03;43.48
71194;BME280;58903;47.210;8.618;2023-11-19T05:16:11;94382.97;;;25.06;43.75
71194;BME280;58903;47.210;8.618;2023-11-19T05:18:54;94379.00;;;25.07;43.51
71194;BME280;58903;47.210;8.618;2023-11-19T05:21:35;94385.75;;;25.06;44.19
71194;BME280;58903;47.210;8.618;2023-11-19T05:27:16;94375.25;;;25.04;44.19
71194;BME280;58903;47.210;8.618;2023-11-19T05:30:07;94378.00;;;25.04;44.21
71194;BME280;58903;47.210;8.618;2023-11-19T05:32:46;94392.50;;;25.05;44.04
71194;BME280;58903;47.210;8.618;2023-11-19T05:35:12;94392.28;;;25.03;44.05
71194;BME280;58903;47.210;8.618;2023-11-19T05:37:39;94399.25;;;25.04;43.42
71194;BME280;58903;47.210;8.618;2023-11-19T05:40:31;94399.25;;;25.04;43.65
71194;BME280;58903;47.210;8.618;2023-11-19T05:42:59;94388.00;;;25.02;43.89
71194;BME280;58903;47.210;8.618;2023-11-19T05:45:57;94391.25;;;25.06;43.88
71194;BME280;58903;47.210;8.618;2023-11-19T05:48:48;94381.25;;;25.03;44.29
71194;BME280;58903;47.210;8.618;2023-11-19T05:51:24;94383.25;;;25.02;43.58
71194;BME280;58903;47.210;8.618;2023-11-19T05:54:01;94391.50;;;25.02;43.39
71194;BME280;58903;47.210;8.618;2023-11-19T05:56:36;94381.03;;;25.01;43.81
71194;BME280;58903;47.210;8.618;2023-11-19T05:59:05;94392.03;;;25.01;43.79
71194;BME280;58903;47.210;8.618;2023-11-19T06:01:49;94376.75;;;25.00;43.54
71194;BME280;58903;47.210;8.618;2023-11-19T06:04:16;94387.78;;;25.00;43.58
71194;BME280;58903;47.210;8.618;2023-11-19T06:06:44;94375.53;;;25.01;44.45
71194;BME280;58903;47.210;8.618;2023-11-19T06:09:23;94374.78;;;25.00;43.97
71194;BME280;58903;47.210;8.618;2023-11-19T06:11:53;94373.75;;;25.03;43.78
71194;BME280;58903;47.210;8.618;2023-11-19T06:14:21;94375.75;;;25.03;44.48
71194;BME280;58903;47.210;8.618;2023-11-19T06:16:47;94382.03;;;25.03;43.82
71194;BME280;58903;47.210;8.618;2023-11-19T06:19:13;94377.25;;;25.04;43.89
71194;BME280;58903;47.210;8.618;2023-11-19T06:21:39;94374.50;;;25.04;43.87
71194;BME280;58903;47.210;8.618;2023-11-19T06:24:41;94380.22;;;25.06;43.57
71194;BME280;58903;47.210;8.618;2023-11-19T06:27:25;94369.22;;;25.06;44.04
71194;BME280;58903;47.210;8.618;2023-11-19T06:30:10;94372.72;;;25.06;44.57
71194;BME280;58903;47.210;8.618;2023-11-19T06:32:39;94374.72;;;25.06;44.39
71194;BME280;58903;47.210;8.618;2023-11-19T06:35:26;94369.22;;;25.06;43.61
71194;BME280;58903;47.210;8.618;2023-11-19T06:38:10;94369.75;;;25.04;43.53
71194;BME280;58903;47.210;8.618;2023-11-19T06:40:38;94374.25;;;25.02;43.68
71194;BME280;58903;47.210;8.618;2023-11-19T06:43:05;94369.75;;;25.04;44.45
71194;BME280;58903;47.210;8.618;2023-11-19T06:45:54;94374.00;;;25.05;43.87
71194;BME280;58903;47.210;8.618;2023-11-19T06:48:41;94378.75;;;25.05;44.34
71194;BME280;58903;47.210;8.618;2023-11-19T06:51:19;94378.50;;;25.03;43.67
71194;BME280;58903;47.210;8.618;2023-11-19T06:53:46;94375.25;;;25.04;44.02
71194;BME280;58903;47.210;8.618;2023-11-19T06:56:22;94365.00;;;25.05;43.88
71194;BME280;58903;47.210;8.618;2023-11-19T06:59:19;94362.25;;;25.05;43.52
71194;BME280;58903;47.210;8.618;2023-11-19T07:02:04;94373.25;;;25.05;43.42
71194;BME280;58903;47.210;8.618;2023-11-19T07:04:55;94371.75;;;25.04;43.88
71194;BME280;58903;47.210;8.618;2023-11-19T07:07:31;94397.78;;;25.03;43.88
71194;BME280;58903;47.210;8.618;2023-11-19T07:10:17;94382.75;;;25.04;43.74
71194;BME280;58903;47.210;8.618;2023-11-19T07:12:44;94373.50;;;25.01;44.31
71194;BME280;58903;47.210;8.618;2023-11-19T07:15:39;94383.97;;;25.08;43.71
71194;BME280;58903;47.210;8.618;2023-11-19T07:18:42;94390.47;;;25.11;44.18
71194;BME280;58903;47.210;8.618;2023-11-19T07:21:42;94390.72;;;25.13;44.49
71194;BME280;58903;47.210;8.618;2023-11-19T07:24:10;94396.22;;;25.13;44.32
71194;BME280;58903;47.210;8.618;2023-11-19T07:26:57;94408.75;;;25.14;43.54
71194;BME280;58903;47.210;8.618;2023-11-19T07:29:34;94397.72;;;25.14;44.31
71194;BME280;58903;47.210;8.618;2023-11-19T07:32:25;94415.47;;;25.13;44.39
71194;BME280;58903;47.210;8.618;2023-11-19T07:35:04;94399.75;;;25.08;43.67
71194;BME280;58903;47.210;8.618;2023-11-19T07:38:09;94394.50;;;25.10;43.71
71194;BME280;58903;47.210;8.618;2023-11-19T07:40:39;94398.50;;;25.09;44.38
71194;BME280;58903;47.210;8.618;2023-11-19T07:43:16;94401.00;;;25.07;44.74
71194;BME280;58903;47.210;8.618;2023-11-19T07:45:53;94400.50;;;25.08;44.45
71194;BME280;58903;47.210;8.618;2023-11-19T07:48:21;94390.25;;;25.09;43.76
71194;BME280;58903;47.210;8.618;2023-11-19T07:51:13;94407.50;;;25.09;44.07
71194;BME280;58903;47.210;8.618;2023-11-19T07:53:53;94403.25;;;25.08;43.90
71194;BME280;58903;47.210;8.618;2023-11-19T07:56:33;94402.75;;;25.10;44.43
71194;BME280;58903;47.210;8.618;2023-11-19T07:59:32;94406.00;;;25.14;44.26
71194;BME280;58903;47.210;8.618;2023-11-19T08:02:06;94408.97;;;25.16;44.37
71194;BME280;58903;47.210;8.618;2023-11-19T08:04:33;94384.97;;;25.16;44.01
71194;BME280;58903;47.210;8.618;2023-11-19T08:10:15;94402.91;;;25.23;44.43
71194;BME280;58903;47.210;8.618;2023-11-19T08:13:01;94396.91;;;25.24;44.82
71194;BME280;58903;47.210;8.618;2023-11-19T08:15:44;94398.66;;;25.27;44.95
71194;BME280;58903;47.210;8.618;2023-11-19T08:18:35;94395.41;;;25.29;43.96
71194;BME280;58903;47.210;8.618;2023-11-19T08:21:09;94398.38;;;25.31;44.92
71194;BME280;58903;47.210;8.618;2023-11-19T08:23:38;94405.63;;;25.34;44.11
71194;BME280;58903;47.210;8.618;2023-11-19T08:26:14;94402.88;;;25.34;43.94
71194;BME280;58903;47.210;8.618;2023-11-19T08:28:40;94403.38;;;25.32;43.94
71194;BME280;58903;47.210;8.618;2023-11-19T08:31:24;94409.13;;;25.34;44.79
71194;BME280;58903;47.210;8.618;2023-11-19T08:33:59;94417.91;;;25.33;43.59
71194;BME280;58903;47.210;8.618;2023-11-19T08:37:04;94416.41;;;25.32;44.09
71194;BME280;58903;47.210;8.618;2023-11-19T08:39:43;94422.13;;;25.34;44.45
71194;BME280;58903;47.210;8.618;2023-11-19T08:42:45;94407.38;;;25.37;43.79
71194;BME280;58903;47.210;8.618;2023-11-19T08:45:11;94413.09;;;25.39;44.05
71194;BME280;58903;47.210;8.618;2023-11-19T08:47:43;94421.13;;;25.37;43.97
71194;BME280;58903;47.210;8.618;2023-11-19T08:50:21;94420.88;;;25.35;44.24
71194;BME280;58903;47.210;8.618;2023-11-19T08:52:55;94415.63;;;25.37;44.32
71194;BME280;58903;47.210;8.618;2023-11-19T08:59:15;94409.13;;;25.40;43.88
71194;BME280;58903;47.210;8.618;2023-11-19T09:02:19;94409.13;;;25.40;44.55
71194;BME280;58903;47.210;8.618;2023-11-19T09:04:54;94405.09;;;25.41;44.21
71194;BME280;58903;47.210;8.618;2023-11-19T09:07:29;94413.09;;;25.39;43.91
71194;BME280;58903;47.210;8.618;2023-11-19T09:10:31;94418.63;;;25.39;44.13
71194;BME280;58903;47.210;8.618;2023-11-19T09:13:07;94426.13;;;25.38;44.33
71194;BME280;58903;47.210;8.618;2023-11-19T09:18:53;94436.66;;;25.40;43.78
71194;BME280;58903;47.210;8.618;2023-11-19T09:21:29;94434.16;;;25.42;44.14
71194;BME280;58903;47.210;8.618;2023-11-19T09:24:12;94443.16;;;25.42;44.73
71194;BME280;58903;47.210;8.618;2023-11-19T09:26:38;94442.63;;;25.38;43.99
71194;BME280;58903;47.210;8.618;2023-11-19T09:29:22;94444.66;;;25.38;44.64
71194;BME280;58903;47.210;8.618;2023-11-19T09:32:18;94444.91;;;25.40;43.97
71194;BME280;58903;47.210;8.618;2023-11-19T09:34:48;94446.16;;;25.39;44.26
71194;BME280;58903;47.210;8.618;2023-11-19T09:40:38;94437.16;;;25.44;44.75
71194;BME280;58903;47.210;8.618;2023-11-19T09:43:15;94434.41;;;25.44;44.18
71194;BME280;58903;47.210;8.618;2023-11-19T09:45:54;94427.84;;;25.47;44.05
71194;BME280;58903;47.210;8.618;2023-11-19T09:48:32;94428.88;;;25.44;44.83
71194;BME280;58903;47.210;8.618;2023-11-19T09:54:42;94420.84;;;25.40;45.16
71194;BME280;58903;47.210;8.618;2023-11-19T10:00:51;94419.63;;;25.36;44.83
71194;BME280;58903;47.210;8.618;2023-11-19T10:03:55;94417.63;;;25.42;45.12
71194;BME280;58903;47.210;8.618;2023-11-19T10:06:24;94410.88;;;25.37;44.72
71194;BME280;58903;47.210;8.618;2023-11-19T10:08:56;94420.63;;;25.38;45.10
71194;BME280;58903;47.210;8.618;2023-11-19T10:11:32;94410.88;;;25.37;45.11
71194;BME280;58903;47.210;8.618;2023-11-19T10:14:00;94414.38;;;25.38;44.95
71194;BME280;58903;47.210;8.618;2023-11-19T10:16:53;94416.38;;;25.43;44.44
71194;BME280;58903;47.210;8.618;2023-11-19T10:19:33;94426.88;;;25.45;44.58
71194;BME280;58903;47.210;8.618;2023-11-19T10:22:22;94426.88;;;25.45;44.49
71194;BME280;58903;47.210;8.618;2023-11-19T10:24:50;94418.38;;;25.42;44.69
71194;BME280;58903;47.210;8.618;2023-11-19T10:27:19;94410.38;;;25.45;44.66
71194;BME280;58903;47.210;8.618;2023-11-19T10:29:50;94406.88;;;25.44;44.83
71194;BME280;58903;47.210;8.618;2023-11-19T10:32:16;94400.84;;;25.46;45.13
71194;BME280;58903;47.210;8.618;2023-11-19T10:34:42;94410.84;;;25.43;44.53
71194;BME280;58903;47.210;8.618;2023-11-19T10:37:48;94402.84;;;25.45;44.89
71194;BME280;58903;47.210;8.618;2023-11-19T10:40:37;94409.34;;;25.48;45.38
71194;BME280;58903;47.210;8.618;2023-11-19T10:43:04;94412.31;;;25.50;44.49
71194;BME280;58903;47.210;8.618;2023-11-19T10:49:17;94397.56;;;25.47;45.10
71194;BME280;58903;47.210;8.618;2023-11-19T10:52:00;94406.06;;;25.49;45.09
71194;BME280;58903;47.210;8.618;2023-11-19T10:54:43;94406.56;;;25.53;44.35
71194;BME280;58903;47.210;8.618;2023-11-19T10:57:21;94402.78;;;25.56;44.33
71194;BME280;58903;47.210;8.618;2023-11-19T11:00:02;94400.50;;;25.60;44.40
71194;BME280;58903;47.210;8.618;2023-11-19T11:03:24;94399.47;;;25.63;44.14
71194;BME280;58903;47.210;8.618;2023-11-19T11:05:53;94407.47;;;25.67;45.00
71194;BME280;58903;47.210;8.618;2023-11-19T11:08:43;94401.47;;;25.63;44.11
71194;BME280;58903;47.210;8.618;2023-11-19T11:11:38;94388.97;;;25.62;44.63
71194;BME280;58903;47.210;8.618;2023-11-19T11:14:13;94377.97;;;25.56;44.70
71194;BME280;58903;47.210;8.618;2023-11-19T11:17:02;94390.75;;;25.59;44.88
71194;BME280;58903;47.210;8.618;2023-11-19T11:19:46;94386.47;;;25.58;44.49
71194;BME280;58903;47.210;8.618;2023-11-19T11:25:52;94395.03;;;25.55;44.75
71194;BME280;58903;47.210;8.618;2023-11-19T11:28:43;94388.53;;;25.52;44.90
71194;BME280;58903;47.210;8.618;2023-11-19T11:37:44;94383.31;;;25.49;45.71
71194;BME280;58903;47.210;8.618;2023-11-19T11:40:39;94384.03;;;25.49;45.19
71194;BME280;58903;47.210;8.618;2023-11-19T11:49:42;94373.53;;;25.48;45.17
71194;BME280;58903;47.210;8.618;2023-11-19T11:52:11;94363.28;;;25.48;45.37
71194;BME280;58903;47.210;8.618;2023-11-19T11:58:21;94359.00;;;25.47;45.73
71194;BME280;58903;47.210;8.618;2023-11-19T12:01:22;94358.00;;;25.50;45.76
71194;BME280;58903;47.210;8.618;2023-11-19T12:04:10;94357.47;;;25.52;46.17
71194;BME280;58903;47.210;8.618;2023-11-19T12:13:44;94345.97;;;25.53;45.63
71194;BME280;58903;47.210;8.618;2023-11-19T12:16:46;94345.47;;;25.49;45.41
71194;BME280;58903;47.210;8.618;2023-11-19T12:19:12;94342.50;;;25.47;45.47
71194;BME280;58903;47.210;8.618;2023-11-19T12:21:38;94331.47;;;25.47;46.38
71194;BME280;58903;47.210;8.618;2023-11-19T12:24:39;94335.22;;;25.50;46.20
71194;BME280;58903;47.210;8.618;2023-11-19T12:27:05;94333.22;;;25.50;45.27
71194;BME280;58903;47.210;8.618;2023-11-19T12:32:47;94330.19;;;25.54;45.42
71194;BME280;58903;47.210;8.618;2023-11-19T12:35:44;94333.91;;;25.56;45.23
71194;BME280;58903;47.210;8.618;2023-11-19T12:38:27;94325.66;;;25.56;45.64
71194;BME280;58903;47.210;8.618;2023-11-19T12:41:14;94327.16;;;25.57;44.95
71194;BME280;58903;47.210;8.618;2023-11-19T12:43:43;94317.63;;;25.58;45.04
71194;BME280;58903;47.210;8.618;2023-11-19T12:46:28;94319.66;;;25.58;45.76
71194;BME280;58903;47.210;8.618;2023-11-19T12:48:54;94313.84;;;25.61;45.40
71194;BME280;58903;47.210;8.618;2023-11-19T12:51:20;94306.59;;;25.58;45.11
71194;BME280;58903;47.210;8.618;2023-11-19T12:57:10;94314.84;;;25.64;45.45
71194;BME280;58903;47.210;8.618;2023-11-19T12:59:36;94314.84;;;25.64;45.09
71194;BME280;58903;47.210;8.618;2023-11-19T13:02:25;94304.06;;;25.66;45.56
71194;BME280;58903;47.210;8.618;2023-11-19T13:05:40;94293.78;;;25.66;44.69
71194;BME280;58903;47.210;8.618;2023-11-19T13:08:09;94290.81;;;25.64;45.37
71194;BME280;58903;47.210;8.618;2023-11-19T13:14:08;94302.28;;;25.68;44.78
71194;BME280;58903;47.210;8.618;2023-11-19T13:16:45;94310.31;;;25.66;44.71
71194;BME280;58903;47.210;8.618;2023-11-19T13:19:42;94298.03;;;25.67;44.47
71194;BME280;58903;47.210;8.618;2023-11-19T13:22:08;94301.00;;;25.69;45.07
71194;BME280;58903;47.210;8.618;2023-11-19T13:25:02;94293.28;;;25.68;45.09
71194;BME280;58903;47.210;8.618;2023-11-19T13:27:37;94285.31;;;25.64;44.59
71194;BME280;58903;47.210;8.618;2023-11-19T13:30:37;94294.53;;;25.67;45.31
71194;BME280;58903;47.210;8.618;2023-11-19T13:33:11;94286.03;;;25.65;44.73
71194;BME280;58903;47.210;8.618;2023-11-19T13:39:41;94295.81;;;25.60;45.11
71194;BME280;58903;47.210;8.618;2023-11-19T13:42:26;94297.03;;;25.65;44.90
71194;BME280;58903;47.210;8.618;2023-11-19T13:44:53;94296.56;;;25.61;44.49
71194;BME280;58903;47.210;8.618;2023-11-19T13:47:32;94299.84;;;25.59;45.11
71194;BME280;58903;47.210;8.618;2023-11-19T13:53:20;94305.59;;;25.61;45.33
71194;BME280;58903;47.210;8.618;2023-11-19T13:56:02;94304.31;;;25.62;44.53
71194;BME280;58903;47.210;8.618;2023-11-19T13:58:37;94306.84;;;25.60;44.89
71194;BME280;58903;47.210;8.618;2023-11-19T14:01:41;94312.34;;;25.60;44.31
71194;BME280;58903;47.210;8.618;2023-11-19T14:04:26;94308.88;;;25.60;45.16
71194;BME280;58903;47.210;8.618;2023-11-19T14:10:02;94309.81;;;25.62;47.13
71194;BME280;58903;47.210;8.618;2023-11-19T14:12:50;94307.38;;;25.59;46.10
71194;BME280;58903;47.210;8.618;2023-11-19T14:15:16;94291.59;;;25.59;46.13
71194;BME280;58903;47.210;8.618;2023-11-19T14:17:53;94295.34;;;25.56;45.53
71194;BME280;58903;47.210;8.618;2023-11-19T14:20:22;94293.59;;;25.59;45.55
71194;BME280;58903;47.210;8.618;2023-11-19T14:23:12;94297.84;;;25.60;45.49
71194;BME280;58903;47.210;8.618;2023-11-19T14:25:39;94295.59;;;25.58;45.22
71194;BME280;58903;47.210;8.618;2023-11-19T14:28:13;94289.09;;;25.56;44.78
71194;BME280;58903;47.210;8.618;2023-11-19T14:30:40;94299.84;;;25.59;45.03
71194;BME280;58903;47.210;8.618;2023-11-19T14:33:21;94294.34;;;25.59;45.28
71194;BME280;58903;47.210;8.618;2023-11-19T14:35:50;94296.88;;;25.57;45.16
71194;BME280;58903;47.210;8.618;2023-11-19T14:38:21;94302.59;;;25.59;45.12
71194;BME280;58903;47.210;8.618;2023-11-19T14:41:13;94299.84;;;25.59;45.46
71194;BME280;58903;47.210;8.618;2023-11-19T14:43:55;94302.59;;;25.59;44.74
71194;BME280;58903;47.210;8.618;2023-11-19T14:46:23;94298.88;;;25.57;45.27
71194;BME280;58903;47.210;8.618;2023-11-19T14:49:02;94302.59;;;25.59;45.28
71194;BME280;58903;47.210;8.618;2023-11-19T14:51:37;94290.09;;;25.58;44.97
71194;BME280;58903;47.210;8.618;2023-11-19T14:54:04;94290.09;;;25.58;44.86
71194;BME280;58903;47.210;8.618;2023-11-19T14:56:41;94280.59;;;25.54;45.86
71194;BME280;58903;47.210;8.618;2023-11-19T14:59:25;94291.44;;;25.46;46.00
71194;BME280;58903;47.210;8.618;2023-11-19T15:02:12;94289.94;;;25.45;45.62
71194;BME280;58903;47.210;8.618;2023-11-19T15:08:17;94282.41;;;25.51;45.15
71194;BME280;58903;47.210;8.618;2023-11-19T15:10:53;94276.63;;;25.49;45.62
71194;BME280;58903;47.210;8.618;2023-11-19T15:13:29;94280.91;;;25.50;45.20
71194;BME280;58903;47.210;8.618;2023-11-19T15:16:04;94285.38;;;25.53;45.40
71194;BME280;58903;47.210;8.618;2023-11-19T15:18:49;94280.91;;;25.50;45.49
71194;BME280;58903;47.210;8.618;2023-11-19T15:21:21;94282.41;;;25.51;45.20
71194;BME280;58903;47.210;8.618;2023-11-19T15:23:49;94291.63;;;25.54;44.94
71194;BME280;58903;47.210;8.618;2023-11-19T15:26:16;94280.13;;;25.50;44.99
71194;BME280;58903;47.210;8.618;2023-11-19T15:28:48;94289.09;;;25.56;44.67
71194;BME280;58903;47.210;8.618;2023-11-19T15:31:25;94280.34;;;25.57;45.22
71194;BME280;58903;47.210;8.618;2023-11-19T15:33:58;94278.34;;;25.58;45.80
71194;BME280;58903;47.210;8.618;2023-11-19T15:36:34;94271.88;;;25.50;45.59
71194;BME280;58903;47.210;8.618;2023-11-19T15:39:02;94274.69;;;25.44;45.68
71194;BME280;58903;47.210;8.618;2023-11-19T15:41:29;94281.94;;;25.41;46.14
71194;BME280;58903;47.210;8.618;2023-11-19T15:44:05;94280.69;;;25.42;46.54
71194;BME280;58903;47.210;8.618;2023-11-19T15:46:53;94286.16;;;25.48;46.14